Time,TemperatureF,DewpointF,PressureIn,WindDirection,WindDirectionDegrees,WindSpeedMPH,WindSpeedGustMPH,Humidity,HourlyPrecipIn,Conditions,Clouds,dailyrainin,SolarRadiationWatts/m^2,SoftwareType,DateUTC
2013-07-29 00:01:00,63.5,56.9,30.01,SSE,150,0.0,0.0,79,0.00,,CLR,0.05,0.00,VWS V14.01,2013-07-29 04:01:00,
2013-07-29 00:02:00,63.5,56.9,30.01,SSE,150,0.0,0.0,79,0.00,,CLR,0.05,0.00,VWS V14.01,2013-07-29 04:02:00,
2013-07-29 00:08:00,63.2,56.6,30.02,SSE,150,0.0,0.0,79,0.00,,CLR,0.00,0.00,VWS V14.01,2013-07-29 04:08:00,
2013-07-29 00:13:00,63.0,56.4,30.02,SSE,150,0.0,0.0,79,0.00,,CLR,0.00,0.00,VWS V14.01,2013-07-29 04:13:00,
2013-07-29 00:18:00,62.9,56.3,30.02,ESE,119,2.0,2.0,79,0.00,,CLR,0.00,0.00,VWS V14.01,2013-07-29 04:18:00,
2013-07-29 00:23:00,62.7,56.5,30.02,SSE,151,0.0,0.0,80,0.00,,CLR,0.00,0.00,VWS V14.01,2013-07-29 04:23:00,
2013-07-29 00:28:00,62.4,56.5,30.02,South,181,1.0,2.0,81,0.00,,CLR,0.00,0.00,VWS V14.01,2013-07-29 04:28:00,
2013-07-29 00:33:00,61.7,56.2,30.03,South,181,0.0,0.0,82,0.00,,CLR,0.00,0.00,VWS V14.01,2013-07-29 04:33:00,
2013-07-29 00:38:00,61.6,55.7,30.03,South,182,0.0,1.0,81,0.00,,CLR,0.00,0.00,VWS V14.01,2013-07-29 04:38:00,
2013-07-29 00:43:00,62.1,55.9,30.03,South,179,0.0,0.0,80,0.00,,CLR,0.00,0.00,VWS V14.01,2013-07-29 04:43:00,
2013-07-29 00:48:00,62.1,55.9,30.03,South,179,1.0,1.0,80,0.00,,CLR,0.00,0.00,VWS V14.01,2013-07-29 04:48:00,
2013-07-29 00:54:00,62.1,55.9,30.03,SE,130,0.0,0.0,80,0.00,,CLR,0.00,0.00,VWS V14.01,2013-07-29 04:54:00,
2013-07-29 00:59:00,61.9,55.7,30.03,SE,130,0.0,0.0,80,0.00,,CLR,0.00,0.00,VWS V14.01,2013-07-29 04:59:00,
2013-07-29 01:04:00,61.6,55.7,30.03,SE,130,0.0,0.0,81,0.00,,CLR,0.00,0.00,VWS V14.01,2013-07-29 05:04:00,
2013-07-29 01:09:00,61.4,55.5,30.03,SE,130,0.0,0.0,81,0.00,,CLR,0.00,0.00,VWS V14.01,2013-07-29 05:09:00,
2013-07-29 01:14:00,61.3,55.4,30.03,SE,130,0.0,0.0,81,0.00,,CLR,0.00,0.00,VWS V14.01,2013-07-29 05:14:00,
2013-07-29 01:19:00,61.1,55.6,30.03,SE,140,0.0,0.0,82,0.00,,CLR,0.00,0.00,VWS V14.01,2013-07-29 05:19:00,
2013-07-29 01:24:00,60.6,55.4,30.03,SE,144,0.0,0.0,83,0.00,,CLR,0.00,0.00,VWS V14.01,2013-07-29 05:24:00,
2013-07-29 01:29:00,60.3,55.5,30.03,SE,144,0.0,0.0,84,0.00,,CLR,0.00,0.00,VWS V14.01,2013-07-29 05:29:00,
2013-07-29 01:34:00,60.0,55.2,30.03,SSE,158,0.0,0.0,84,0.00,,CLR,0.00,0.00,VWS V14.01,2013-07-29 05:34:00,
2013-07-29 01:39:00,59.9,55.4,30.03,SSE,158,0.0,0.0,85,0.00,,CLR,0.00,0.00,VWS V14.01,2013-07-29 05:39:00,
2013-07-29 01:44:00,59.7,55.2,30.03,SSE,158,0.0,0.0,85,0.00,,CLR,0.00,0.00,VWS V14.01,2013-07-29 05:44:00,
2013-07-29 01:49:00,59.7,55.2,30.03,SSE,158,0.0,0.0,85,0.00,,CLR,0.00,0.00,VWS V14.01,2013-07-29 05:49:00,
2013-07-29 01:54:00,59.5,55.0,30.03,SSE,158,0.0,0.0,85,0.00,,CLR,0.00,0.00,VWS V14.01,2013-07-29 05:54:00,
2013-07-29 02:00:00,59.4,54.9,30.03,SSE,158,0.0,0.0,85,0.00,,CLR,0.00,0.00,VWS V14.01,2013-07-29 06:00:00,
2013-07-29 02:05:00,59.1,54.9,30.03,SSE,158,0.0,0.0,86,0.00,,CLR,0.00,0.00,VWS V14.01,2013-07-29 06:05:00,
2013-07-29 02:10:00,58.9,54.7,30.03,SSE,158,0.0,0.0,86,0.00,,CLR,0.00,0.00,VWS V14.01,2013-07-29 06:10:00,
2013-07-29 02:15:00,58.5,54.7,30.03,SSE,161,0.0,0.0,87,0.00,,CLR,0.00,0.00,VWS V14.01,2013-07-29 06:15:00,
2013-07-29 02:20:00,58.5,55.0,30.03,SSE,161,0.0,0.0,88,0.00,,CLR,0.00,0.00,VWS V14.01,2013-07-29 06:20:00,
2013-07-29 02:25:00,58.3,54.8,30.03,SSE,161,0.0,0.0,88,0.00,,CLR,0.00,0.00,VWS V14.01,2013-07-29 06:25:00,
2013-07-29 02:30:00,58.3,54.8,30.03,SSE,161,0.0,0.0,88,0.00,,CLR,0.00,0.00,VWS V14.01,2013-07-29 06:30:00,
2013-07-29 02:35:00,58.3,54.5,30.03,SSE,161,0.0,0.0,87,0.00,,CLR,0.00,0.00,VWS V14.01,2013-07-29 06:35:00,
2013-07-29 02:40:00,58.2,54.4,30.03,SSE,161,0.0,0.0,87,0.00,,CLR,0.00,0.00,VWS V14.01,2013-07-29 06:40:00,
2013-07-29 02:45:00,58.0,54.2,30.03,SSE,161,0.0,0.0,87,0.00,,CLR,0.00,0.00,VWS V14.01,2013-07-29 06:45:00,
2013-07-29 02:50:00,57.7,53.9,30.03,SSE,161,0.0,0.0,87,0.00,,CLR,0.00,0.00,VWS V14.01,2013-07-29 06:50:00,
2013-07-29 02:56:00,57.6,54.1,30.03,SSE,161,0.0,0.0,88,0.00,,CLR,0.00,0.00,VWS V14.01,2013-07-29 06:56:00,
2013-07-29 03:01:00,57.6,54.1,30.03,SSE,161,0.0,0.0,88,0.00,,CLR,0.00,0.00,VWS V14.01,2013-07-29 07:01:00,
2013-07-29 03:06:00,57.4,53.9,30.04,SSE,161,0.0,0.0,88,0.00,,CLR,0.00,0.00,VWS V14.01,2013-07-29 07:06:00,
2013-07-29 03:11:00,57.3,53.8,30.04,SSE,161,0.0,0.0,88,0.00,,CLR,0.00,0.00,VWS V14.01,2013-07-29 07:11:00,
2013-07-29 03:16:00,57.1,53.6,30.04,SSE,161,0.0,0.0,88,0.00,,CLR,0.00,0.00,VWS V14.01,2013-07-29 07:16:00,
2013-07-29 03:21:00,57.0,53.8,30.04,SSE,161,0.0,0.0,89,0.00,,CLR,0.00,0.00,VWS V14.01,2013-07-29 07:21:00,
2013-07-29 03:26:00,56.6,53.4,30.04,SSE,161,0.0,0.0,89,0.00,,CLR,0.00,0.00,VWS V14.01,2013-07-29 07:26:00,
2013-07-29 03:31:00,56.5,53.3,30.04,SSE,161,0.0,0.0,89,0.00,,CLR,0.00,0.00,VWS V14.01,2013-07-29 07:31:00,
2013-07-29 03:36:00,56.3,53.4,30.04,SSE,161,0.0,0.0,90,0.00,,CLR,0.00,0.00,VWS V14.01,2013-07-29 07:36:00,
2013-07-29 03:41:00,56.0,53.1,30.04,SSE,161,0.0,0.0,90,0.00,,CLR,0.00,0.00,VWS V14.01,2013-07-29 07:41:00,
2013-07-29 03:47:00,55.9,53.0,30.04,SSE,161,0.0,0.0,90,0.00,,CLR,0.00,0.00,VWS V14.01,2013-07-29 07:47:00,
2013-07-29 03:52:00,55.7,53.1,30.04,SSE,161,0.0,0.0,91,0.00,,CLR,0.00,0.00,VWS V14.01,2013-07-29 07:52:00,
2013-07-29 03:57:00,55.7,53.1,30.04,SSE,161,0.0,0.0,91,0.00,,CLR,0.00,0.00,VWS V14.01,2013-07-29 07:57:00,
2013-07-29 04:02:00,55.9,53.3,30.04,SSE,161,0.0,0.0,91,0.00,,CLR,0.00,0.00,VWS V14.01,2013-07-29 08:02:00,
2013-07-29 04:07:00,55.9,53.6,30.05,SSE,161,0.0,0.0,92,0.00,,CLR,0.00,0.00,VWS V14.01,2013-07-29 08:07:00,
2013-07-29 04:12:00,55.7,53.4,30.05,SSE,161,0.0,0.0,92,0.00,,CLR,0.00,0.00,VWS V14.01,2013-07-29 08:12:00,
2013-07-29 04:17:00,55.6,53.3,30.05,SSE,161,0.0,0.0,92,0.00,,CLR,0.00,0.00,VWS V14.01,2013-07-29 08:17:00,
2013-07-29 04:22:00,55.5,53.2,30.05,SSE,161,0.0,0.0,92,0.00,,CLR,0.00,0.00,VWS V14.01,2013-07-29 08:22:00,
2013-07-29 04:27:00,55.3,53.0,30.05,SSE,161,0.0,0.0,92,0.00,,CLR,0.00,0.00,VWS V14.01,2013-07-29 08:27:00,
2013-07-29 04:32:00,55.2,52.9,30.05,SSE,161,0.0,0.0,92,0.00,,CLR,0.00,0.00,VWS V14.01,2013-07-29 08:32:00,
2013-07-29 04:38:00,55.0,52.7,30.05,SSE,161,0.0,0.0,92,0.00,,CLR,0.00,0.00,VWS V14.01,2013-07-29 08:38:00,
2013-07-29 04:43:00,54.7,52.4,30.05,SSE,161,0.0,0.0,92,0.00,,CLR,0.00,0.00,VWS V14.01,2013-07-29 08:43:00,
2013-07-29 04:48:00,54.7,52.4,30.05,SSE,161,0.0,0.0,92,0.00,,CLR,0.00,0.00,VWS V14.01,2013-07-29 08:48:00,
2013-07-29 04:53:00,54.6,52.3,30.05,SSE,161,0.0,0.0,92,0.00,,CLR,0.00,0.00,VWS V14.01,2013-07-29 08:53:00,
2013-07-29 04:58:00,54.6,52.3,30.05,SSE,161,0.0,0.0,92,0.00,,CLR,0.00,0.00,VWS V14.01,2013-07-29 08:58:00,
2013-07-29 05:03:00,54.3,52.0,30.05,SSE,161,0.0,0.0,92,0.00,,CLR,0.00,0.00,VWS V14.01,2013-07-29 09:03:00,
2013-07-29 05:08:00,54.3,52.3,30.05,SSE,161,0.0,0.0,93,0.00,,CLR,0.00,0.00,VWS V14.01,2013-07-29 09:08:00,
2013-07-29 05:13:00,54.1,52.1,30.05,SSE,161,0.0,0.0,93,0.00,,CLR,0.00,0.00,VWS V14.01,2013-07-29 09:13:00,
2013-07-29 05:18:00,54.1,52.1,30.05,SSE,161,0.0,0.0,93,0.00,,CLR,0.00,0.00,VWS V14.01,2013-07-29 09:18:00,
2013-07-29 05:23:00,54.1,52.1,30.05,SSE,161,0.0,0.0,93,0.00,,CLR,0.00,0.00,VWS V14.01,2013-07-29 09:23:00,
2013-07-29 05:28:00,54.1,52.4,30.05,SSE,161,0.0,0.0,94,0.00,,CLR,0.00,0.00,VWS V14.01,2013-07-29 09:28:00,
2013-07-29 05:33:00,54.1,52.4,30.06,SSE,161,0.0,0.0,94,0.00,,CLR,0.00,0.00,VWS V14.01,2013-07-29 09:33:00,
2013-07-29 05:38:00,54.1,52.4,30.06,South,169,0.0,0.0,94,0.00,,CLR,0.00,0.00,VWS V14.01,2013-07-29 09:38:00,
2013-07-29 05:43:00,54.0,52.3,30.06,SSW,200,0.0,0.0,94,0.00,,CLR,0.00,0.00,VWS V14.01,2013-07-29 09:43:00,
2013-07-29 05:48:00,54.0,52.3,30.07,SSW,200,0.0,0.0,94,0.00,,CLR,0.00,0.00,VWS V14.01,2013-07-29 09:48:00,
2013-07-29 05:53:00,53.8,52.1,30.07,SSW,200,0.0,0.0,94,0.00,,CLR,0.00,0.00,VWS V14.01,2013-07-29 09:53:00,
2013-07-29 05:58:00,53.7,52.0,30.07,SSW,200,0.0,0.0,94,0.00,,CLR,0.00,0.00,VWS V14.01,2013-07-29 09:58:00,
2013-07-29 06:03:00,53.5,51.8,30.07,SSW,200,0.0,0.0,94,0.00,,CLR,0.00,0.00,VWS V14.01,2013-07-29 10:03:00,
2013-07-29 06:09:00,53.4,51.7,30.07,SSW,200,0.0,0.0,94,0.00,,CLR,0.00,0.00,VWS V14.01,2013-07-29 10:09:00,
2013-07-29 06:14:00,53.2,51.5,30.07,SSW,200,0.0,0.0,94,0.00,,CLR,0.00,5.00,VWS V14.01,2013-07-29 10:14:00,
2013-07-29 06:19:00,53.1,51.4,30.08,SSW,200,0.0,0.0,94,0.00,,CLR,0.00,7.00,VWS V14.01,2013-07-29 10:19:00,
2013-07-29 06:24:00,53.1,51.7,30.08,SSW,200,0.0,0.0,95,0.00,,CLR,0.00,7.00,VWS V14.01,2013-07-29 10:24:00,
2013-07-29 06:29:00,53.2,51.8,30.08,SSW,200,0.0,0.0,95,0.00,,CLR,0.00,11.00,VWS V14.01,2013-07-29 10:29:00,
2013-07-29 06:35:00,53.2,51.8,30.09,SSW,200,0.0,0.0,95,0.00,,CLR,0.00,12.00,VWS V14.01,2013-07-29 10:35:00,
2013-07-29 06:40:00,53.2,51.8,30.09,SSW,200,0.0,0.0,95,0.00,,CLR,0.00,18.00,VWS V14.01,2013-07-29 10:40:00,
2013-07-29 06:46:00,53.1,51.7,30.09,SSW,200,0.0,0.0,95,0.00,,CLR,0.00,19.00,VWS V14.01,2013-07-29 10:46:00,
2013-07-29 06:51:00,53.4,52.3,30.09,SSW,200,0.0,0.0,96,0.00,,CLR,0.00,28.00,VWS V14.01,2013-07-29 10:51:00,
2013-07-29 06:56:00,53.4,52.3,30.09,SSW,200,0.0,0.0,96,0.00,,CLR,0.00,26.00,VWS V14.01,2013-07-29 10:56:00,
2013-07-29 07:01:00,53.5,52.4,30.09,SSW,200,0.0,0.0,96,0.00,,CLR,0.00,21.00,VWS V14.01,2013-07-29 11:01:00,
2013-07-29 07:07:00,53.7,52.6,30.09,SSW,200,0.0,0.0,96,0.00,,CLR,0.00,23.00,VWS V14.01,2013-07-29 11:07:00,
2013-07-29 07:12:00,53.8,52.7,30.09,SSW,200,0.0,0.0,96,0.00,,CLR,0.00,25.00,VWS V14.01,2013-07-29 11:12:00,
2013-07-29 07:18:00,54.0,52.9,30.10,SSW,200,0.0,0.0,96,0.00,,CLR,0.00,25.00,VWS V14.01,2013-07-29 11:18:00,
2013-07-29 07:23:00,54.1,53.0,30.10,SSW,200,0.0,0.0,96,0.00,,CLR,0.00,26.00,VWS V14.01,2013-07-29 11:23:00,
2013-07-29 07:29:00,54.3,53.2,30.10,SSW,200,0.0,0.0,96,0.00,,CLR,0.00,28.00,VWS V14.01,2013-07-29 11:29:00,
2013-07-29 07:34:00,54.6,53.8,30.10,WSW,248,1.0,2.0,97,0.00,,CLR,0.00,28.00,VWS V14.01,2013-07-29 11:34:00,
2013-07-29 07:39:00,54.9,54.1,30.10,WSW,248,0.0,2.0,97,0.00,,CLR,0.00,28.00,VWS V14.01,2013-07-29 11:39:00,
2013-07-29 07:44:00,55.0,53.9,30.10,WSW,248,1.0,1.0,96,0.00,,CLR,0.00,30.00,VWS V14.01,2013-07-29 11:44:00,
2013-07-29 07:49:00,55.3,54.5,30.10,WSW,257,0.0,3.0,97,0.00,,CLR,0.00,30.00,VWS V14.01,2013-07-29 11:49:00,
2013-07-29 07:54:00,55.7,54.6,30.10,West,264,0.0,2.0,96,0.00,,CLR,0.00,32.00,VWS V14.01,2013-07-29 11:54:00,
2013-07-29 07:59:00,56.0,54.9,30.10,SW,222,0.0,6.0,96,0.00,,CLR,0.00,32.00,VWS V14.01,2013-07-29 11:59:00,
2013-07-29 08:04:00,56.5,55.4,30.10,SW,222,0.0,0.0,96,0.00,,CLR,0.00,32.00,VWS V14.01,2013-07-29 12:04:00,
2013-07-29 08:09:00,57.0,55.6,30.10,WSW,246,0.0,0.0,95,0.00,,CLR,0.00,32.00,VWS V14.01,2013-07-29 12:09:00,
2013-07-29 08:14:00,57.1,55.7,30.10,WSW,246,0.0,0.0,95,0.00,,CLR,0.00,33.00,VWS V14.01,2013-07-29 12:14:00,
2013-07-29 08:19:00,57.4,55.7,30.11,WSW,248,0.0,2.0,94,0.00,,CLR,0.00,33.00,VWS V14.01,2013-07-29 12:19:00,
2013-07-29 08:24:00,57.6,55.3,30.11,West,261,1.0,2.0,92,0.00,,CLR,0.00,35.00,VWS V14.01,2013-07-29 12:24:00,
2013-07-29 08:29:00,57.9,55.6,30.11,West,261,0.0,2.0,92,0.00,,CLR,0.00,35.00,VWS V14.01,2013-07-29 12:29:00,
2013-07-29 08:34:00,58.2,55.3,30.11,West,261,0.0,0.0,90,0.00,,CLR,0.00,35.00,VWS V14.01,2013-07-29 12:34:00,
2013-07-29 08:39:00,58.5,55.6,30.11,West,261,0.0,0.0,90,0.00,,CLR,0.00,35.00,VWS V14.01,2013-07-29 12:39:00,
2013-07-29 08:44:00,59.2,55.7,30.11,West,261,0.0,0.0,88,0.00,,CLR,0.00,37.00,VWS V14.01,2013-07-29 12:44:00,
2013-07-29 08:50:00,59.5,55.3,30.11,West,261,0.0,0.0,86,0.00,,CLR,0.00,37.00,VWS V14.01,2013-07-29 12:50:00,
2013-07-29 08:55:00,60.0,55.5,30.11,West,261,0.0,0.0,85,0.00,,CLR,0.00,37.00,VWS V14.01,2013-07-29 12:55:00,
2013-07-29 09:00:00,60.8,55.9,30.11,West,261,0.0,0.0,84,0.00,,CLR,0.00,39.00,VWS V14.01,2013-07-29 13:00:00,
2013-07-29 09:05:00,61.1,55.2,30.11,West,261,1.0,2.0,81,0.00,,CLR,0.00,39.00,VWS V14.01,2013-07-29 13:05:00,
2013-07-29 09:10:00,61.6,56.1,30.11,NNE,13,0.0,2.0,82,0.00,,CLR,0.00,46.00,VWS V14.01,2013-07-29 13:10:00,
2013-07-29 09:15:00,61.9,56.0,30.11,NNE,13,0.0,0.0,81,0.00,,CLR,0.00,42.00,VWS V14.01,2013-07-29 13:15:00,
2013-07-29 09:20:00,62.2,55.6,30.11,North,0,0.0,0.0,79,0.00,,CLR,0.00,107.00,VWS V14.01,2013-07-29 13:20:00,
2013-07-29 09:26:00,62.7,56.1,30.11,WNW,294,3.0,3.0,79,0.00,,CLR,0.00,91.00,VWS V14.01,2013-07-29 13:26:00,
2013-07-29 09:31:00,62.9,55.9,30.11,WNW,289,0.0,3.0,78,0.00,,CLR,0.00,62.00,VWS V14.01,2013-07-29 13:31:00,
2013-07-29 09:37:00,63.3,56.0,30.11,West,274,0.0,2.0,77,0.00,,CLR,0.00,62.00,VWS V14.01,2013-07-29 13:37:00,
2013-07-29 09:42:00,63.7,54.9,30.11,SW,224,3.0,5.0,73,0.00,,CLR,0.00,72.00,VWS V14.01,2013-07-29 13:42:00,
2013-07-29 09:48:00,64.2,54.2,30.10,WSW,241,2.0,3.0,70,0.00,,CLR,0.00,60.00,VWS V14.01,2013-07-29 13:48:00,
2013-07-29 09:53:00,64.6,53.8,30.10,WSW,239,2.0,2.0,68,0.00,,CLR,0.00,70.00,VWS V14.01,2013-07-29 13:53:00,
2013-07-29 09:58:00,65.1,53.9,30.10,West,263,0.0,2.0,67,0.00,,CLR,0.00,120.00,VWS V14.01,2013-07-29 13:58:00,
2013-07-29 10:04:00,65.8,54.1,30.10,WNW,287,2.0,5.0,66,0.00,,CLR,0.00,137.00,VWS V14.01,2013-07-29 14:04:00,
2013-07-29 10:09:00,66.1,52.3,30.10,NW,311,0.0,5.0,61,0.00,,CLR,0.00,56.00,VWS V14.01,2013-07-29 14:09:00,
2013-07-29 10:14:00,66.4,53.0,30.10,NW,304,0.0,0.0,62,0.00,,CLR,0.00,113.00,VWS V14.01,2013-07-29 14:14:00,
2013-07-29 10:19:00,67.1,54.5,30.10,NW,304,0.0,2.0,64,0.00,,CLR,0.00,121.00,VWS V14.01,2013-07-29 14:19:00,
2013-07-29 10:25:00,67.4,54.8,30.10,NW,304,0.0,1.0,64,0.00,,CLR,0.00,209.00,VWS V14.01,2013-07-29 14:25:00,
2013-07-29 10:30:00,67.8,54.3,30.10,SW,226,0.0,3.0,62,0.00,,CLR,0.00,77.00,VWS V14.01,2013-07-29 14:30:00,
2013-07-29 10:35:00,68.1,54.6,30.10,WNW,296,0.0,0.0,62,0.00,,CLR,0.00,77.00,VWS V14.01,2013-07-29 14:35:00,
2013-07-29 10:40:00,68.4,53.1,30.10,West,261,1.0,7.0,58,0.00,,CLR,0.00,77.00,VWS V14.01,2013-07-29 14:40:00,
2013-07-29 10:45:00,68.8,53.0,30.10,WSW,246,0.0,0.0,57,0.00,,CLR,0.00,785.00,VWS V14.01,2013-07-29 14:45:00,
2013-07-29 10:50:00,69.3,54.4,30.10,WNW,287,0.0,4.0,59,0.00,,CLR,0.00,792.00,VWS V14.01,2013-07-29 14:50:00,
2013-07-29 10:55:00,69.6,54.7,30.10,NW,312,0.0,2.0,59,0.00,,CLR,0.00,815.00,VWS V14.01,2013-07-29 14:55:00,
2013-07-29 11:01:00,69.9,53.5,30.10,SSW,198,1.0,2.0,56,0.00,,CLR,0.00,834.00,VWS V14.01,2013-07-29 15:01:00,
2013-07-29 11:06:00,70.6,54.2,30.09,WSW,243,7.0,7.0,56,0.00,,CLR,0.00,855.00,VWS V14.01,2013-07-29 15:06:00,
2013-07-29 11:12:00,71.1,53.6,30.09,NW,311,1.0,7.0,54,0.00,,CLR,0.00,876.00,VWS V14.01,2013-07-29 15:12:00,
2013-07-29 11:17:00,71.7,53.2,30.10,WSW,246,3.0,7.0,52,0.00,,CLR,0.00,973.00,VWS V14.01,2013-07-29 15:17:00,
2013-07-29 11:23:00,72.2,52.5,30.10,WSW,239,0.0,7.0,50,0.00,,CLR,0.00,1028.00,VWS V14.01,2013-07-29 15:23:00,
2013-07-29 11:28:00,72.7,53.5,30.10,WSW,253,5.0,7.0,51,0.00,,CLR,0.00,1068.00,VWS V14.01,2013-07-29 15:28:00,
2013-07-29 11:33:00,73.4,53.7,30.10,NW,318,1.0,7.0,50,0.00,,CLR,0.00,1109.00,VWS V14.01,2013-07-29 15:33:00,
2013-07-29 11:38:00,73.6,53.3,30.10,ENE,72,0.0,4.0,49,0.00,,CLR,0.00,741.00,VWS V14.01,2013-07-29 15:38:00,
2013-07-29 11:43:00,73.2,54.5,30.10,NW,325,0.0,0.0,52,0.00,,CLR,0.00,741.00,VWS V14.01,2013-07-29 15:43:00,
2013-07-29 11:48:00,72.7,53.5,30.10,West,274,0.0,8.0,51,0.00,,CLR,0.00,977.00,VWS V14.01,2013-07-29 15:48:00,
2013-07-29 11:53:00,73.4,53.7,30.10,WSW,241,0.0,2.0,50,0.00,,CLR,0.00,1008.00,VWS V14.01,2013-07-29 15:53:00,
2013-07-29 11:58:00,73.6,52.2,30.10,NE,40,0.0,3.0,47,0.00,,CLR,0.00,1003.00,VWS V14.01,2013-07-29 15:58:00,
2013-07-29 12:03:00,73.7,56.5,30.09,SSW,208,0.0,3.0,55,0.00,,CLR,0.00,1089.00,VWS V14.01,2013-07-29 16:03:00,
2013-07-29 12:09:00,74.3,52.8,30.09,NE,56,3.0,6.0,47,0.00,,CLR,0.00,1089.00,VWS V14.01,2013-07-29 16:09:00,
2013-07-29 12:14:00,74.3,53.4,30.09,North,350,0.0,2.0,48,0.00,,CLR,0.00,1207.00,VWS V14.01,2013-07-29 16:14:00,
2013-07-29 12:19:00,74.3,53.4,30.09,North,356,0.0,2.0,48,0.00,,CLR,0.00,282.00,VWS V14.01,2013-07-29 16:19:00,
2013-07-29 12:24:00,73.4,52.5,30.09,WSW,253,2.0,6.0,48,0.00,,CLR,0.00,290.00,VWS V14.01,2013-07-29 16:24:00,
2013-07-29 12:29:00,73.2,52.9,30.09,WNW,294,2.0,7.0,49,0.00,,CLR,0.00,290.00,VWS V14.01,2013-07-29 16:29:00,
2013-07-29 12:35:00,73.6,52.7,30.10,North,0,1.0,3.0,48,0.00,,CLR,0.00,340.00,VWS V14.01,2013-07-29 16:35:00,
2013-07-29 12:40:00,74.1,54.3,30.10,WSW,253,2.0,3.0,50,0.00,,CLR,0.00,1182.00,VWS V14.01,2013-07-29 16:40:00,
2013-07-29 12:45:00,74.6,53.1,30.10,SW,232,4.0,6.0,47,0.00,,CLR,0.00,1124.00,VWS V14.01,2013-07-29 16:45:00,
2013-07-29 12:50:00,74.8,53.2,30.09,West,268,2.0,6.0,47,0.00,,CLR,0.00,1138.00,VWS V14.01,2013-07-29 16:50:00,
2013-07-29 12:55:00,74.8,54.4,30.09,WNW,285,0.0,1.0,49,0.00,,CLR,0.00,301.00,VWS V14.01,2013-07-29 16:55:00,
2013-07-29 13:00:00,74.1,53.7,30.09,SSW,195,1.0,5.0,49,0.00,,CLR,0.00,292.00,VWS V14.01,2013-07-29 17:00:00,
2013-07-29 13:06:00,73.7,52.2,30.09,SW,236,8.0,8.0,47,0.00,,CLR,0.00,301.00,VWS V14.01,2013-07-29 17:06:00,
2013-07-29 13:12:00,74.4,54.6,30.09,SW,223,1.0,8.0,50,0.00,,CLR,0.00,1218.00,VWS V14.01,2013-07-29 17:12:00,
2013-07-29 13:17:00,75.0,52.2,30.09,WSW,257,1.0,8.0,45,0.00,,CLR,0.00,1218.00,VWS V14.01,2013-07-29 17:17:00,
2013-07-29 13:22:00,75.7,57.4,30.09,WNW,292,2.0,8.0,53,0.00,,CLR,0.00,1112.00,VWS V14.01,2013-07-29 17:22:00,
2013-07-29 13:27:00,76.0,56.0,30.09,West,270,1.0,6.0,50,0.00,,CLR,0.00,1101.00,VWS V14.01,2013-07-29 17:27:00,
2013-07-29 13:32:00,76.0,52.5,30.09,SW,219,2.0,6.0,44,0.00,,CLR,0.00,1101.00,VWS V14.01,2013-07-29 17:32:00,
2013-07-29 13:38:00,76.2,52.1,30.09,NW,306,2.0,7.0,43,0.00,,CLR,0.00,1070.00,VWS V14.01,2013-07-29 17:38:00,
2013-07-29 13:43:00,76.2,53.3,30.09,SW,215,7.0,7.0,45,0.00,,CLR,0.00,1080.00,VWS V14.01,2013-07-29 17:43:00,
2013-07-29 13:48:00,76.4,52.3,30.10,WNW,291,1.0,9.0,43,0.00,,CLR,0.00,1033.00,VWS V14.01,2013-07-29 17:48:00,
2013-07-29 13:53:00,76.6,52.5,30.10,NNW,346,3.0,6.0,43,0.00,,CLR,0.00,1033.00,VWS V14.01,2013-07-29 17:53:00,
2013-07-29 13:58:00,76.4,52.9,30.10,West,260,4.0,7.0,44,0.00,,CLR,0.00,1033.00,VWS V14.01,2013-07-29 17:58:00,
2013-07-29 14:05:00,77.1,55.3,30.09,West,272,2.0,4.0,47,0.00,,CLR,0.00,1186.00,VWS V14.01,2013-07-29 18:05:00,
2013-07-29 14:10:00,77.3,51.1,30.09,West,274,3.0,8.0,40,0.00,,CLR,0.00,1154.00,VWS V14.01,2013-07-29 18:10:00,
2013-07-29 14:15:00,77.8,52.2,30.09,West,270,2.0,5.0,41,0.00,,CLR,0.00,1103.00,VWS V14.01,2013-07-29 18:15:00,
2013-07-29 14:20:00,77.5,53.3,30.10,SW,216,7.0,7.0,43,0.00,,CLR,0.00,1103.00,VWS V14.01,2013-07-29 18:20:00,
2013-07-29 14:25:00,77.6,53.4,30.10,WSW,257,5.0,7.0,43,0.00,,CLR,0.00,1112.00,VWS V14.01,2013-07-29 18:25:00,
2013-07-29 14:31:00,77.6,52.1,30.10,WSW,243,3.0,7.0,41,0.00,,CLR,0.00,1103.00,VWS V14.01,2013-07-29 18:31:00,
2013-07-29 14:36:00,77.6,52.7,30.09,SSW,210,0.0,6.0,42,0.00,,CLR,0.00,1145.00,VWS V14.01,2013-07-29 18:36:00,
2013-07-29 14:41:00,78.0,55.0,30.09,WSW,237,4.0,6.0,45,0.00,,CLR,0.00,1087.00,VWS V14.01,2013-07-29 18:41:00,
2013-07-29 14:46:00,77.8,54.8,30.09,WNW,298,1.0,6.0,45,0.00,,CLR,0.00,239.00,VWS V14.01,2013-07-29 18:46:00,
2013-07-29 14:52:00,77.1,52.3,30.09,SW,234,6.0,7.0,42,0.00,,CLR,0.00,303.00,VWS V14.01,2013-07-29 18:52:00,
2013-07-29 14:57:00,76.7,53.2,30.09,West,260,5.0,7.0,44,0.00,,CLR,0.00,1077.00,VWS V14.01,2013-07-29 18:57:00,
2013-07-29 15:02:00,76.4,52.3,30.09,West,275,0.0,7.0,43,0.00,,CLR,0.00,1077.00,VWS V14.01,2013-07-29 19:02:00,
2013-07-29 15:07:00,76.4,54.1,30.10,WNW,296,5.0,7.0,46,0.00,,CLR,0.00,373.00,VWS V14.01,2013-07-29 19:07:00,
2013-07-29 15:12:00,76.2,53.3,30.10,WSW,243,1.0,7.0,45,0.00,,CLR,0.00,362.00,VWS V14.01,2013-07-29 19:12:00,
2013-07-29 15:17:00,76.4,52.9,30.10,West,260,6.0,6.0,44,0.00,,CLR,0.00,324.00,VWS V14.01,2013-07-29 19:17:00,
2013-07-29 15:22:00,76.7,53.2,30.10,WSW,239,3.0,8.0,44,0.00,,CLR,0.00,1112.00,VWS V14.01,2013-07-29 19:22:00,
2013-07-29 15:27:00,76.6,53.7,30.10,WSW,253,2.0,5.0,45,0.00,,CLR,0.00,406.00,VWS V14.01,2013-07-29 19:27:00,
2013-07-29 15:32:00,76.2,54.5,30.10,West,267,2.0,5.0,47,0.00,,CLR,0.00,396.00,VWS V14.01,2013-07-29 19:32:00,
2013-07-29 15:37:00,76.2,55.7,30.10,West,271,0.0,0.0,49,0.00,,CLR,0.00,310.00,VWS V14.01,2013-07-29 19:37:00,
2013-07-29 15:42:00,76.0,50.6,30.10,West,272,0.0,5.0,41,0.00,,CLR,0.00,329.00,VWS V14.01,2013-07-29 19:42:00,
2013-07-29 15:47:00,76.2,54.5,30.09,West,272,0.0,2.0,47,0.00,,CLR,0.00,329.00,VWS V14.01,2013-07-29 19:47:00,
2013-07-29 15:53:00,76.0,51.3,30.09,West,271,1.0,5.0,42,0.00,,CLR,0.00,283.00,VWS V14.01,2013-07-29 19:53:00,
2013-07-29 15:58:00,76.0,53.2,30.09,West,270,0.0,5.0,45,0.00,,CLR,0.00,429.00,VWS V14.01,2013-07-29 19:58:00,
2013-07-29 16:03:00,76.6,54.3,30.09,ENE,78,1.0,5.0,46,0.00,,CLR,0.00,1056.00,VWS V14.01,2013-07-29 20:03:00,
2013-07-29 16:08:00,77.1,52.9,30.09,WNW,289,2.0,5.0,43,0.00,,CLR,0.00,494.00,VWS V14.01,2013-07-29 20:08:00,
2013-07-29 16:13:00,77.8,50.2,30.09,WSW,248,0.0,0.0,38,0.00,,CLR,0.00,964.00,VWS V14.01,2013-07-29 20:13:00,
2013-07-29 16:18:00,77.8,52.9,30.09,North,352,2.0,3.0,42,0.00,,CLR,0.00,252.00,VWS V14.01,2013-07-29 20:18:00,
2013-07-29 16:23:00,77.5,52.0,30.09,North,0,1.0,1.0,41,0.00,,CLR,0.00,317.00,VWS V14.01,2013-07-29 20:23:00,
2013-07-29 16:28:00,77.3,51.8,30.09,North,357,3.0,6.0,41,0.00,,CLR,0.00,850.00,VWS V14.01,2013-07-29 20:28:00,
2013-07-29 16:34:00,77.8,52.2,30.09,NNW,335,3.0,8.0,41,0.00,,CLR,0.00,758.00,VWS V14.01,2013-07-29 20:34:00,
2013-07-29 16:39:00,78.0,53.1,30.09,WNW,302,0.0,10.0,42,0.00,,CLR,0.00,727.00,VWS V14.01,2013-07-29 20:39:00,
2013-07-29 16:45:00,77.6,53.4,30.09,NW,315,3.0,4.0,43,0.00,,CLR,0.00,727.00,VWS V14.01,2013-07-29 20:45:00,
2013-07-29 16:50:00,77.6,53.4,30.09,WNW,302,2.0,10.0,43,0.00,,CLR,0.00,296.00,VWS V14.01,2013-07-29 20:50:00,
2013-07-29 16:55:00,77.8,54.2,30.09,NNW,332,0.0,7.0,44,0.00,,CLR,0.00,716.00,VWS V14.01,2013-07-29 20:55:00,
2013-07-29 17:00:00,78.0,51.8,30.09,NNW,337,0.0,10.0,40,0.00,,CLR,0.00,699.00,VWS V14.01,2013-07-29 21:00:00,
2013-07-29 17:06:00,78.2,53.9,30.09,NW,313,0.0,4.0,43,0.00,,CLR,0.00,648.00,VWS V14.01,2013-07-29 21:06:00,
2013-07-29 17:11:00,78.2,51.9,30.09,NW,323,3.0,6.0,40,0.00,,CLR,0.00,618.00,VWS V14.01,2013-07-29 21:11:00,
2013-07-29 17:16:00,78.4,51.4,30.09,North,349,0.0,4.0,39,0.00,,CLR,0.00,616.00,VWS V14.01,2013-07-29 21:16:00,
2013-07-29 17:21:00,78.2,53.2,30.09,NNW,328,5.0,6.0,42,0.00,,CLR,0.00,598.00,VWS V14.01,2013-07-29 21:21:00,
2013-07-29 17:26:00,77.8,52.9,30.09,North,4,5.0,7.0,42,0.00,,CLR,0.00,612.00,VWS V14.01,2013-07-29 21:26:00,
2013-07-29 17:31:00,77.5,52.0,30.09,North,3,0.0,7.0,41,0.00,,CLR,0.00,605.00,VWS V14.01,2013-07-29 21:31:00,
2013-07-29 17:36:00,77.6,52.1,30.09,North,3,0.0,3.0,41,0.00,,CLR,0.00,540.00,VWS V14.01,2013-07-29 21:36:00,
2013-07-29 17:41:00,78.0,55.0,30.09,North,1,0.0,6.0,45,0.00,,CLR,0.00,565.00,VWS V14.01,2013-07-29 21:41:00,
2013-07-29 17:46:00,78.2,51.9,30.09,NNE,23,0.0,2.0,40,0.00,,CLR,0.00,544.00,VWS V14.01,2013-07-29 21:46:00,
2013-07-29 17:51:00,78.0,53.1,30.09,NNE,13,0.0,2.0,42,0.00,,CLR,0.00,558.00,VWS V14.01,2013-07-29 21:51:00,
2013-07-29 17:56:00,78.4,52.1,30.09,NNW,330,0.0,4.0,40,0.00,,CLR,0.00,500.00,VWS V14.01,2013-07-29 21:56:00,
2013-07-29 18:01:00,78.6,53.6,30.09,North,353,0.0,4.0,42,0.00,,CLR,0.00,486.00,VWS V14.01,2013-07-29 22:01:00,
2013-07-29 18:06:00,78.6,53.0,30.09,NNE,16,2.0,2.0,41,0.00,,CLR,0.00,486.00,VWS V14.01,2013-07-29 22:06:00,
2013-07-29 18:12:00,77.8,52.9,30.09,NNE,25,0.0,5.0,42,0.00,,CLR,0.00,486.00,VWS V14.01,2013-07-29 22:12:00,
2013-07-29 18:17:00,76.9,52.7,30.10,North,0,0.0,2.0,43,0.00,,CLR,0.00,128.00,VWS V14.01,2013-07-29 22:17:00,
2013-07-29 18:22:00,76.2,52.1,30.10,NE,52,0.0,6.0,43,0.00,,CLR,0.00,128.00,VWS V14.01,2013-07-29 22:22:00,
2013-07-29 18:27:00,76.2,52.1,30.10,North,0,1.0,5.0,43,0.00,,CLR,0.00,447.00,VWS V14.01,2013-07-29 22:27:00,
2013-07-29 18:33:00,76.6,53.1,30.10,NNW,344,0.0,5.0,44,0.00,,CLR,0.00,412.00,VWS V14.01,2013-07-29 22:33:00,
2013-07-29 18:38:00,76.9,54.6,30.10,NNW,340,0.0,2.0,46,0.00,,CLR,0.00,366.00,VWS V14.01,2013-07-29 22:38:00,
2013-07-29 18:43:00,77.3,53.1,30.10,NNW,340,0.0,0.0,43,0.00,,CLR,0.00,334.00,VWS V14.01,2013-07-29 22:43:00,
2013-07-29 18:48:00,77.3,53.7,30.11,NW,325,1.0,6.0,44,0.00,,CLR,0.00,324.00,VWS V14.01,2013-07-29 22:48:00,
2013-07-29 18:54:00,77.1,52.9,30.11,NNE,20,0.0,2.0,43,0.00,,CLR,0.00,324.00,VWS V14.01,2013-07-29 22:54:00,
2013-07-29 18:59:00,76.7,53.2,30.11,NE,52,0.0,6.0,44,0.00,,CLR,0.00,324.00,VWS V14.01,2013-07-29 22:59:00,
2013-07-29 19:04:00,76.6,53.1,30.11,NNW,340,2.0,2.0,44,0.00,,CLR,0.00,324.00,VWS V14.01,2013-07-29 23:04:00,
2013-07-29 19:10:00,76.0,53.2,30.11,NW,309,0.0,2.0,45,0.00,,CLR,0.00,190.00,VWS V14.01,2013-07-29 23:10:00,
2013-07-29 19:15:00,75.8,53.0,30.11,NNW,339,1.0,2.0,45,0.00,,CLR,0.00,164.00,VWS V14.01,2013-07-29 23:15:00,
2013-07-29 19:20:00,75.7,52.3,30.12,North,356,0.0,2.0,44,0.00,,CLR,0.00,199.00,VWS V14.01,2013-07-29 23:20:00,
2013-07-29 19:25:00,75.5,55.0,30.12,NNW,336,0.0,2.0,49,0.00,,CLR,0.00,199.00,VWS V14.01,2013-07-29 23:25:00,
2013-07-29 19:30:00,75.1,53.5,30.12,NNW,336,0.0,2.0,47,0.00,,CLR,0.00,84.00,VWS V14.01,2013-07-29 23:30:00,
2013-07-29 19:35:00,74.8,53.8,30.13,NNW,328,1.0,4.0,48,0.00,,CLR,0.00,139.00,VWS V14.01,2013-07-29 23:35:00,
2013-07-29 19:40:00,74.4,54.0,30.13,North,0,0.0,4.0,49,0.00,,CLR,0.00,120.00,VWS V14.01,2013-07-29 23:40:00,
2013-07-29 19:46:00,74.3,54.5,30.13,North,359,0.0,1.0,50,0.00,,CLR,0.00,100.00,VWS V14.01,2013-07-29 23:46:00,
2013-07-29 19:51:00,74.1,54.8,30.13,North,357,0.0,1.0,51,0.00,,CLR,0.00,81.00,VWS V14.01,2013-07-29 23:51:00,
2013-07-29 19:56:00,73.9,54.1,30.13,North,359,0.0,0.0,50,0.00,,CLR,0.00,62.00,VWS V14.01,2013-07-29 23:56:00,
2013-07-29 20:01:00,73.7,55.5,30.13,North,356,0.0,2.0,53,0.00,,CLR,0.00,49.00,VWS V14.01,2013-07-30 00:01:00,
2013-07-29 20:07:00,73.2,55.1,30.14,North,356,0.0,0.0,53,0.00,,CLR,0.00,30.00,VWS V14.01,2013-07-30 00:07:00,
2013-07-29 20:13:00,72.7,54.6,30.14,North,356,0.0,0.0,53,0.00,,CLR,0.00,19.00,VWS V14.01,2013-07-30 00:13:00,
2013-07-29 20:18:00,71.8,55.3,30.14,North,356,0.0,0.0,56,0.00,,CLR,0.00,14.00,VWS V14.01,2013-07-30 00:18:00,
2013-07-29 20:24:00,71.1,54.1,30.14,North,356,0.0,0.0,55,0.00,,CLR,0.00,9.00,VWS V14.01,2013-07-30 00:24:00,
2013-07-29 20:29:00,70.5,55.0,30.14,North,356,0.0,0.0,58,0.00,,CLR,0.00,7.00,VWS V14.01,2013-07-30 00:29:00,
2013-07-29 20:34:00,69.6,54.7,30.15,North,356,0.0,0.0,59,0.00,,CLR,0.00,5.00,VWS V14.01,2013-07-30 00:34:00,
2013-07-29 20:39:00,68.8,54.8,30.15,North,356,0.0,1.0,61,0.00,,CLR,0.00,0.00,VWS V14.01,2013-07-30 00:39:00,
2013-07-29 20:44:00,68.3,55.2,30.15,North,356,0.0,0.0,63,0.00,,CLR,0.00,0.00,VWS V14.01,2013-07-30 00:44:00,
2013-07-29 20:50:00,67.8,54.8,30.15,North,356,0.0,0.0,63,0.00,,CLR,0.00,0.00,VWS V14.01,2013-07-30 00:50:00,
2013-07-29 20:55:00,67.3,55.2,30.15,North,356,0.0,0.0,65,0.00,,CLR,0.00,0.00,VWS V14.01,2013-07-30 00:55:00,
2013-07-29 21:01:00,66.4,55.5,30.15,North,356,0.0,0.0,68,0.00,,CLR,0.00,0.00,VWS V14.01,2013-07-30 01:01:00,
2013-07-29 21:06:00,65.9,55.5,30.16,North,356,0.0,0.0,69,0.00,,CLR,0.00,0.00,VWS V14.01,2013-07-30 01:06:00,
2013-07-29 21:12:00,65.4,55.4,30.16,North,356,0.0,0.0,70,0.00,,CLR,0.00,0.00,VWS V14.01,2013-07-30 01:12:00,
2013-07-29 21:18:00,65.1,55.5,30.16,West,267,0.0,0.0,71,0.00,,CLR,0.00,0.00,VWS V14.01,2013-07-30 01:18:00,
2013-07-29 21:23:00,64.6,55.4,30.16,West,267,0.0,0.0,72,0.00,,CLR,0.00,0.00,VWS V14.01,2013-07-30 01:23:00,
2013-07-29 21:28:00,64.5,55.3,30.16,West,267,0.0,0.0,72,0.00,,CLR,0.00,0.00,VWS V14.01,2013-07-30 01:28:00,
2013-07-29 21:33:00,64.3,55.5,30.17,West,267,0.0,0.0,73,0.00,,CLR,0.00,0.00,VWS V14.01,2013-07-30 01:33:00,
2013-07-29 21:38:00,63.8,55.4,30.17,West,267,0.0,0.0,74,0.00,,CLR,0.00,0.00,VWS V14.01,2013-07-30 01:38:00,
2013-07-29 21:43:00,63.3,55.6,30.17,West,267,0.0,0.0,76,0.00,,CLR,0.00,0.00,VWS V14.01,2013-07-30 01:43:00,
2013-07-29 21:49:00,62.9,55.6,30.18,West,267,0.0,0.0,77,0.00,,CLR,0.00,0.00,VWS V14.01,2013-07-30 01:49:00,
2013-07-29 21:54:00,62.2,55.6,30.18,West,267,0.0,0.0,79,0.00,,CLR,0.00,0.00,VWS V14.01,2013-07-30 01:54:00,
2013-07-29 21:59:00,62.1,55.9,30.18,West,267,0.0,0.0,80,0.00,,CLR,0.00,0.00,VWS V14.01,2013-07-30 01:59:00,
2013-07-29 22:04:00,61.7,55.8,30.18,West,267,0.0,0.0,81,0.00,,CLR,0.00,0.00,VWS V14.01,2013-07-30 02:04:00,
2013-07-29 22:09:00,61.7,55.8,30.18,West,267,0.0,0.0,81,0.00,,CLR,0.00,0.00,VWS V14.01,2013-07-30 02:09:00,
2013-07-29 22:14:00,61.6,55.7,30.18,West,267,0.0,0.0,81,0.00,,CLR,0.00,0.00,VWS V14.01,2013-07-30 02:14:00,
2013-07-29 22:19:00,61.4,55.5,30.18,West,267,0.0,0.0,81,0.00,,CLR,0.00,0.00,VWS V14.01,2013-07-30 02:19:00,
2013-07-29 22:24:00,61.3,55.8,30.18,West,267,0.0,0.0,82,0.00,,CLR,0.00,0.00,VWS V14.01,2013-07-30 02:24:00,
2013-07-29 22:30:00,61.1,55.2,30.18,West,267,0.0,0.0,81,0.00,,CLR,0.00,0.00,VWS V14.01,2013-07-30 02:30:00,
2013-07-29 22:35:00,61.1,55.2,30.18,West,267,0.0,0.0,81,0.00,,CLR,0.00,0.00,VWS V14.01,2013-07-30 02:35:00,
2013-07-29 22:43:00,61.6,55.7,30.18,West,267,0.0,0.0,81,0.00,,CLR,0.00,0.00,VWS V14.01,2013-07-30 02:43:00,
2013-07-29 22:48:00,61.7,55.5,30.18,West,267,0.0,0.0,80,0.00,,CLR,0.00,0.00,VWS V14.01,2013-07-30 02:48:00,
2013-07-29 22:53:00,61.7,55.8,30.18,West,267,0.0,0.0,81,0.00,,CLR,0.00,0.00,VWS V14.01,2013-07-30 02:53:00,
2013-07-29 22:58:00,61.7,55.8,30.18,West,267,0.0,0.0,81,0.00,,CLR,0.00,0.00,VWS V14.01,2013-07-30 02:58:00,
2013-07-29 23:03:00,61.7,55.8,30.18,West,267,0.0,0.0,81,0.00,,CLR,0.00,0.00,VWS V14.01,2013-07-30 03:03:00,
2013-07-29 23:08:00,61.6,55.7,30.18,West,267,0.0,0.0,81,0.00,,CLR,0.00,0.00,VWS V14.01,2013-07-30 03:08:00,
2013-07-29 23:13:00,61.7,55.5,30.18,West,267,0.0,0.0,80,0.00,,CLR,0.00,0.00,VWS V14.01,2013-07-30 03:13:00,
2013-07-29 23:19:00,61.7,55.1,30.17,West,267,0.0,0.0,79,0.00,,CLR,0.00,0.00,VWS V14.01,2013-07-30 03:19:00,
2013-07-29 23:24:00,61.9,55.3,30.17,West,267,0.0,0.0,79,0.00,,CLR,0.00,0.00,VWS V14.01,2013-07-30 03:24:00,
2013-07-29 23:30:00,61.9,55.0,30.17,West,267,0.0,0.0,78,0.00,,CLR,0.00,0.00,VWS V14.01,2013-07-30 03:30:00,
2013-07-29 23:35:00,61.9,55.0,30.17,West,267,0.0,0.0,78,0.00,,CLR,0.00,0.00,VWS V14.01,2013-07-30 03:35:00,
2013-07-29 23:40:00,61.6,54.7,30.17,West,267,0.0,0.0,78,0.00,,CLR,0.00,0.00,VWS V14.01,2013-07-30 03:40:00,
2013-07-29 23:46:00,61.3,54.4,30.17,West,267,0.0,0.0,78,0.00,,CLR,0.00,0.00,VWS V14.01,2013-07-30 03:46:00,
2013-07-29 23:51:00,61.3,54.4,30.18,West,267,0.0,0.0,78,0.00,,CLR,0.00,0.00,VWS V14.01,2013-07-30 03:51:00,
2013-07-29 23:56:00,61.4,54.5,30.18,West,267,0.0,0.0,78,0.00,,CLR,0.00,0.00,VWS V14.01,2013-07-30 03:56:00,